createdAt,value
2022-12-08T00:15:31.540Z,38.35
2022-12-08T00:37:07.337Z,42.40
2022-12-08T01:09:39.496Z,43.55
2022-12-08T01:12:07.791Z,45.58
2022-12-08T01:19:11.327Z,43.78
2022-12-08T01:41:04.851Z,42.40
2022-12-08T01:44:00.398Z,44.50
2022-12-08T01:52:36.549Z,44.92
2022-12-08T02:00:47.615Z,47.15
2022-12-08T02:13:06.699Z,42.35
2022-12-08T02:20:39.324Z,42.13
2022-12-08T02:51:51.447Z,36.42
2022-12-08T02:59:10.530Z,35.33
2022-12-08T03:06:46.617Z,33.42
2022-12-08T03:27:45.687Z,32.33
2022-12-08T03:44:28.432Z,27.15
2022-12-08T03:51:48.317Z,27.85
2022-12-08T04:00:24.504Z,27.27
2022-12-08T04:07:38.421Z,24.80
2022-12-08T04:14:50.688Z,30.55
2022-12-08T04:41:06.320Z,20.90
2022-12-08T04:58:26.660Z,18.85
2022-12-08T05:05:46.720Z,19.42
2022-12-08T05:22:52.515Z,20.13
2022-12-08T06:10:55.632Z,15.40
2022-12-08T06:23:38.837Z,13.93
2022-12-08T06:30:59.477Z,13.80
2022-12-08T06:42:58.581Z,11.80
2022-12-08T06:50:13.680Z,11.88
2022-12-08T06:52:51.777Z,13.88
2022-12-08T06:55:50.808Z,12.57
2022-12-08T06:58:11.657Z,12.48
2022-12-08T07:00:39.720Z,11.75
2022-12-08T07:03:08.929Z,13.63
2022-12-08T07:05:36.997Z,14.45
2022-12-08T07:08:06.982Z,11.10
2022-12-08T07:10:34.862Z,11.68
2022-12-08T07:13:02.291Z,13.20
2022-12-08T07:15:29.751Z,12.68
2022-12-08T07:18:00.029Z,13.40
2022-12-08T07:20:28.281Z,12.48
2022-12-08T07:22:56.018Z,12.88
2022-12-08T07:25:23.691Z,12.43
2022-12-08T07:27:52.697Z,11.52
2022-12-08T07:30:20.589Z,10.73
2022-12-08T07:32:48.024Z,13.30
2022-12-08T07:35:15.559Z,13.82
2022-12-08T07:37:43.079Z,12.57
2022-12-08T07:40:11.104Z,11.75
2022-12-08T07:42:38.541Z,13.70
2022-12-08T07:45:06.608Z,12.23
2022-12-08T07:47:34.083Z,10.52
2022-12-08T07:50:01.732Z,13.30
2022-12-08T07:52:29.388Z,11.45
2022-12-08T07:54:56.807Z,10.75
2022-12-08T07:57:24.213Z,11.35
2022-12-08T07:59:51.639Z,11.30
2022-12-08T08:02:25.363Z,11.20
2022-12-08T08:04:53.846Z,10.93
2022-12-08T08:07:21.483Z,10.57
2022-12-08T08:09:48.994Z,12.68
2022-12-08T08:12:31.179Z,12.20
2022-12-08T08:15:01.222Z,12.10
2022-12-08T08:17:30.060Z,10.88
2022-12-08T08:19:57.696Z,11.45
2022-12-08T08:22:26.349Z,10.45
2022-12-08T08:24:54.345Z,9.63
2022-12-08T08:27:22.560Z,8.57
2022-12-08T08:29:50.007Z,10.00
2022-12-08T08:32:17.452Z,10.15
2022-12-08T08:34:44.965Z,9.75
2022-12-08T08:37:12.567Z,9.50
2022-12-08T08:39:40.029Z,9.32
2022-12-08T08:42:07.514Z,10.27
2022-12-08T08:44:34.901Z,11.38
2022-12-08T08:47:02.359Z,9.93
2022-12-08T08:49:29.758Z,9.90
2022-12-08T08:51:57.208Z,9.77
2022-12-08T08:54:24.690Z,11.45
2022-12-08T08:56:52.731Z,9.15
2022-12-08T08:59:20.166Z,11.27
2022-12-08T09:01:47.668Z,8.95
2022-12-08T09:04:15.294Z,9.27
2022-12-08T09:06:44.184Z,8.82
2022-12-08T09:09:12.294Z,8.77
2022-12-08T09:11:40.286Z,8.77
2022-12-08T09:14:07.749Z,10.30
2022-12-08T09:16:40.411Z,9.65
2022-12-08T09:19:09.721Z,8.82
2022-12-08T09:21:37.252Z,8.70
2022-12-08T09:24:04.834Z,9.30
2022-12-08T09:26:32.280Z,9.27
2022-12-08T09:28:59.781Z,9.70
2022-12-08T09:31:27.371Z,9.68
2022-12-08T09:33:55.086Z,8.90
2022-12-08T09:36:22.627Z,8.20
2022-12-08T09:38:51.149Z,10.35
2022-12-08T09:41:50.113Z,8.23
2022-12-08T09:44:57.240Z,8.32
2022-12-08T09:47:35.538Z,8.00
2022-12-08T09:50:09.825Z,8.68
2022-12-08T09:53:17.979Z,7.80
2022-12-08T09:56:17.377Z,8.63
2022-12-08T09:58:48.449Z,7.95
2022-12-08T10:01:16.666Z,10.05
2022-12-08T10:03:44.571Z,8.93
2022-12-08T10:06:37.390Z,14.75
2022-12-08T10:09:23.288Z,13.45
2022-12-08T10:11:55.954Z,10.02
2022-12-08T10:14:43.859Z,13.30
2022-12-08T10:17:30.906Z,10.95
2022-12-08T10:20:04.084Z,12.18
2022-12-08T10:22:37.602Z,14.77
2022-12-08T10:25:23.323Z,9.73
2022-12-08T10:27:54.053Z,9.68
2022-12-08T10:30:22.331Z,10.10
2022-12-08T10:32:52.901Z,13.93
2022-12-08T10:35:22.830Z,8.63
2022-12-08T10:37:58.678Z,10.30
2022-12-08T10:40:39.070Z,13.05
2022-12-08T10:43:17.631Z,10.82
2022-12-08T10:45:45.347Z,14.82
2022-12-08T10:48:19.136Z,13.73
2022-12-08T10:50:54.315Z,12.32
2022-12-08T10:53:29.108Z,9.70
2022-12-08T10:56:02.465Z,11.48
2022-12-08T10:58:30.213Z,7.75
2022-12-08T11:01:10.851Z,9.68
2022-12-08T11:03:50.073Z,11.20
2022-12-08T11:06:21.974Z,7.85
2022-12-08T11:08:53.010Z,9.02
2022-12-08T11:11:29.005Z,9.50
2022-12-08T11:13:57.128Z,10.45
2022-12-08T11:16:25.198Z,13.63
2022-12-08T11:18:57.321Z,9.10
2022-12-08T11:21:36.805Z,13.50
2022-12-08T11:24:32.290Z,8.35
2022-12-08T11:27:05.209Z,8.88
2022-12-08T11:29:35.288Z,7.65
2022-12-08T11:32:08.005Z,10.45
2022-12-08T11:34:45.721Z,10.57
2022-12-08T11:37:47.030Z,9.52
2022-12-08T11:40:23.512Z,10.30
2022-12-08T11:43:09.515Z,11.50
2022-12-08T11:45:37.060Z,9.20
2022-12-08T11:48:25.508Z,14.05
2022-12-08T11:51:17.126Z,9.05
2022-12-08T11:54:06.250Z,8.02
2022-12-08T11:57:03.582Z,6.95
2022-12-08T11:59:38.425Z,8.85
2022-12-08T12:02:12.504Z,8.02
2022-12-08T12:04:45.961Z,10.18
2022-12-08T12:07:26.122Z,6.80
2022-12-08T12:10:06.323Z,8.85
2022-12-08T12:12:59.362Z,7.35
2022-12-08T12:15:49.926Z,6.88
2022-12-08T12:18:46.548Z,8.55
2022-12-08T12:21:18.410Z,8.95
2022-12-08T12:23:54.494Z,6.03
2022-12-08T12:26:37.180Z,6.83
2022-12-08T12:29:16.002Z,7.90
2022-12-08T12:31:48.807Z,7.35
2022-12-08T12:34:21.693Z,5.88
2022-12-08T12:37:13.082Z,7.07
2022-12-08T12:39:52.454Z,6.28
2022-12-08T12:42:55.100Z,6.95
2022-12-08T12:45:22.500Z,8.95
2022-12-08T12:47:57.184Z,5.57
2022-12-08T12:50:33.777Z,6.47
2022-12-08T12:53:26.108Z,5.97
2022-12-08T12:56:01.428Z,6.53
2022-12-08T12:58:28.995Z,7.20
2022-12-08T13:01:08.668Z,6.63
2022-12-08T13:03:39.009Z,7.70
2022-12-08T13:06:14.160Z,6.68
2022-12-08T13:08:51.310Z,8.02
2022-12-08T13:11:19.193Z,5.82
2022-12-08T13:14:03.226Z,6.13
2022-12-08T13:16:39.672Z,5.68
2022-12-08T13:19:16.083Z,7.68
2022-12-08T13:21:43.589Z,6.03
2022-12-08T13:24:13.693Z,6.50
2022-12-08T13:26:45.800Z,6.32
2022-12-08T13:29:16.333Z,6.15
2022-12-08T13:31:50.526Z,9.73
2022-12-08T13:34:42.333Z,4.90
2022-12-08T13:37:13.665Z,6.22
2022-12-08T13:40:11.183Z,6.55
2022-12-08T13:43:11.065Z,7.07
2022-12-08T13:46:52.528Z,4.95
2022-12-08T13:49:52.727Z,7.65
2022-12-08T13:57:27.358Z,5.45
2022-12-08T13:59:59.591Z,4.68
2022-12-08T14:02:43.764Z,5.15
2022-12-08T14:05:19.559Z,5.57
2022-12-08T14:07:53.342Z,5.28
2022-12-08T14:10:27.443Z,6.25
2022-12-08T14:13:04.142Z,4.78
2022-12-08T14:15:38.119Z,7.78
2022-12-08T14:18:21.287Z,6.05
2022-12-08T14:21:20.397Z,6.18
2022-12-08T14:23:48.113Z,6.32
2022-12-08T14:26:15.512Z,6.93
2022-12-08T14:28:45.310Z,5.32
2022-12-08T14:31:14.750Z,6.68
2022-12-08T14:33:43.077Z,5.68
2022-12-08T14:36:12.361Z,6.15
2022-12-08T14:38:40.038Z,7.07
2022-12-08T14:41:11.728Z,6.53
2022-12-08T14:43:41.007Z,5.72
2022-12-08T14:46:22.830Z,5.40
2022-12-08T14:48:50.469Z,7.68
2022-12-08T14:51:23.720Z,8.10
2022-12-08T14:53:58.914Z,7.15
2022-12-08T14:56:40.523Z,5.85
2022-12-08T14:59:19.155Z,5.97
2022-12-08T15:01:49.023Z,7.13
2022-12-08T15:04:27.239Z,6.20
2022-12-08T15:07:04.878Z,6.68
2022-12-08T15:09:37.613Z,7.63
2022-12-08T15:12:06.790Z,7.07
2022-12-08T15:14:37.394Z,7.35
2022-12-08T15:17:40.134Z,6.38
2022-12-08T15:20:43.142Z,7.10
2022-12-08T15:23:24.815Z,6.75
2022-12-08T15:25:52.869Z,6.43
2022-12-08T15:28:28.127Z,6.00
2022-12-08T15:30:58.805Z,7.40
2022-12-08T15:33:27.477Z,6.78
2022-12-08T15:35:55.008Z,7.32
2022-12-08T15:38:25.185Z,5.65
2022-12-08T15:40:58.838Z,7.72
2022-12-08T15:43:27.330Z,7.75
2022-12-08T15:45:59.400Z,7.13
2022-12-08T15:48:29.624Z,6.82
2022-12-08T15:50:57.714Z,7.43
2022-12-08T15:53:26.085Z,8.90
2022-12-08T15:56:25.722Z,7.55
2022-12-08T15:58:57.983Z,8.68
2022-12-08T16:01:26.686Z,9.77
2022-12-08T16:04:47.494Z,9.05
2022-12-08T16:09:38.357Z,7.88
2022-12-08T16:13:13.578Z,8.38
2022-12-08T16:18:13.985Z,9.27
2022-12-08T16:21:08.064Z,7.32
2022-12-08T16:23:42.314Z,7.63
2022-12-08T16:29:22.638Z,8.68
2022-12-08T16:31:50.419Z,8.70
2022-12-08T16:34:17.841Z,9.57
2022-12-08T16:36:45.268Z,7.93
2022-12-08T16:39:14.071Z,8.85
2022-12-08T16:42:00.350Z,9.35
2022-12-08T16:44:28.105Z,8.68
2022-12-08T16:46:55.506Z,9.77
2022-12-08T16:49:22.917Z,15.60
2022-12-08T16:51:50.356Z,9.05
2022-12-08T16:54:17.786Z,11.35
2022-12-08T16:56:45.239Z,12.88
2022-12-08T16:59:12.697Z,10.75
2022-12-08T17:01:40.567Z,10.00
2022-12-08T17:04:30.566Z,12.38
2022-12-08T17:06:55.541Z,11.98
2022-12-08T17:09:22.975Z,12.23
2022-12-08T17:11:50.456Z,12.27
2022-12-08T17:14:18.251Z,14.15
2022-12-08T17:17:02.453Z,13.25
2022-12-08T17:19:30.061Z,12.40
2022-12-08T17:21:57.551Z,10.93
2022-12-08T17:24:29.004Z,14.05
2022-12-08T17:27:04.225Z,12.50
2022-12-08T17:29:32.932Z,14.38
2022-12-08T17:32:00.827Z,14.45
2022-12-08T17:34:28.338Z,14.80
2022-12-08T17:36:56.057Z,13.70
2022-12-08T17:39:23.692Z,14.52
2022-12-08T17:41:51.240Z,14.48
2022-12-08T17:44:19.789Z,17.25
2022-12-08T17:46:52.526Z,16.13
2022-12-08T17:49:23.803Z,14.55
2022-12-08T17:51:54.350Z,15.23
2022-12-08T17:54:22.042Z,15.02
2022-12-08T17:56:49.501Z,19.13
2022-12-08T17:59:17.377Z,16.83
2022-12-08T18:01:45.038Z,15.18
2022-12-08T18:04:13.581Z,16.98
2022-12-08T18:06:41.099Z,15.77
2022-12-08T18:09:08.775Z,15.80
2022-12-08T18:11:37.089Z,19.40
2022-12-08T18:14:10.476Z,17.50
2022-12-08T18:16:41.174Z,18.42
2022-12-08T18:19:09.621Z,18.88
2022-12-08T18:21:37.521Z,16.98
2022-12-08T18:24:05.715Z,17.98
2022-12-08T18:26:33.688Z,19.42
2022-12-08T18:29:01.457Z,16.80
2022-12-08T18:31:29.055Z,15.45
2022-12-08T18:33:56.515Z,16.92
2022-12-08T18:36:25.616Z,17.05
2022-12-08T18:38:53.460Z,17.38
2022-12-08T18:41:26.174Z,17.27
2022-12-08T18:43:55.362Z,18.52
2022-12-08T18:46:23.714Z,16.30
2022-12-08T18:48:52.021Z,16.58
2022-12-08T18:51:22.453Z,17.02
2022-12-08T18:53:51.628Z,21.00
2022-12-08T18:56:26.712Z,20.15
2022-12-08T18:59:01.313Z,17.77
2022-12-08T19:01:31.932Z,18.33
2022-12-08T19:06:48.258Z,20.63
2022-12-08T19:09:15.940Z,20.17
2022-12-08T19:11:44.058Z,17.45
2022-12-08T19:14:11.665Z,25.52
2022-12-08T19:16:39.175Z,16.20
2022-12-08T19:19:06.668Z,19.85
2022-12-08T19:21:34.200Z,20.00
2022-12-08T19:24:01.675Z,20.83
2022-12-08T19:26:29.329Z,20.95
2022-12-08T19:28:57.881Z,21.25
2022-12-08T19:31:25.691Z,22.55
2022-12-08T19:33:53.466Z,23.05
2022-12-08T19:36:22.292Z,24.20
2022-12-08T19:39:09.176Z,20.13
2022-12-08T19:41:55.854Z,17.83
2022-12-08T19:44:32.894Z,15.95
2022-12-08T19:47:01.613Z,19.95
2022-12-08T19:49:29.603Z,20.08
2022-12-08T19:51:57.315Z,18.17
2022-12-08T19:54:25.105Z,16.02
2022-12-08T19:56:52.762Z,17.33
2022-12-08T19:59:20.482Z,21.50
2022-12-08T20:01:48.515Z,17.50
2022-12-08T20:04:18.560Z,20.00
2022-12-08T20:06:46.904Z,16.92
2022-12-08T20:09:14.896Z,17.73
2022-12-08T20:11:42.621Z,18.70
2022-12-08T20:14:10.036Z,17.35
2022-12-08T20:16:37.833Z,16.83
2022-12-08T20:19:05.449Z,20.98
2022-12-08T20:21:32.909Z,19.02
2022-12-08T20:24:00.339Z,17.67
2022-12-08T20:26:28.047Z,17.02
2022-12-08T20:28:55.763Z,20.08
2022-12-08T20:31:26.401Z,16.70
2022-12-08T20:33:54.828Z,22.33
2022-12-08T20:36:23.200Z,20.52
2022-12-08T20:38:52.942Z,16.90
2022-12-08T20:41:23.573Z,18.63
2022-12-08T20:43:52.499Z,17.35
2022-12-08T20:46:21.653Z,18.63
2022-12-08T20:48:49.856Z,16.02
2022-12-08T20:51:19.638Z,16.80
2022-12-08T20:53:48.213Z,16.33
2022-12-08T20:56:21.365Z,15.88
2022-12-08T20:58:50.669Z,16.92
2022-12-08T21:01:22.093Z,16.50
2022-12-08T21:03:51.561Z,18.98
2022-12-08T21:06:24.185Z,14.93
2022-12-08T21:08:52.204Z,18.30
2022-12-08T21:11:20.549Z,17.75
2022-12-08T21:13:48.820Z,14.30
2022-12-08T21:16:17.712Z,17.25
2022-12-08T21:18:46.080Z,14.27
2022-12-08T21:21:15.462Z,15.30
2022-12-08T21:23:44.101Z,15.60
2022-12-08T21:26:17.885Z,13.98
2022-12-08T21:28:47.590Z,17.63
2022-12-08T21:31:18.318Z,17.58
2022-12-08T21:33:46.118Z,16.75
2022-12-08T21:36:16.301Z,16.38
2022-12-08T21:38:44.582Z,16.25
2022-12-08T21:41:14.834Z,16.42
2022-12-08T21:43:43.313Z,15.15
2022-12-08T21:46:16.744Z,20.05
2022-12-08T21:48:44.480Z,18.60
2022-12-08T21:51:12.313Z,21.90
2022-12-08T21:53:39.881Z,17.85
2022-12-08T21:56:10.692Z,21.92
2022-12-08T21:58:39.802Z,17.92
2022-12-08T22:01:09.627Z,19.15
2022-12-08T22:03:39.186Z,17.00
2022-12-08T22:06:08.836Z,16.73
2022-12-08T22:08:37.322Z,17.17
2022-12-08T22:11:06.392Z,17.80
2022-12-08T22:13:40.531Z,17.67
2022-12-08T22:16:11.386Z,15.63
2022-12-08T22:18:39.230Z,14.80
2022-12-08T22:21:17.192Z,18.27
2022-12-08T22:23:44.939Z,14.85
2022-12-08T22:26:13.079Z,15.98
2022-12-08T22:28:42.891Z,15.05
2022-12-08T22:31:19.665Z,13.70
2022-12-08T22:36:24.551Z,11.63
2022-12-08T22:38:53.389Z,13.05
2022-12-08T22:41:21.668Z,16.30
2022-12-08T22:43:50.275Z,16.08
2022-12-08T22:46:20.649Z,15.82
2022-12-08T22:48:48.723Z,17.15
2022-12-08T22:51:16.616Z,13.25
2022-12-08T22:53:44.526Z,13.77
2022-12-08T22:56:13.456Z,15.48
2022-12-08T22:58:42.265Z,14.45
2022-12-08T23:01:24.602Z,12.75
2022-12-08T23:03:52.263Z,15.25
2022-12-08T23:06:20.388Z,14.73
2022-12-08T23:08:48.506Z,12.98
2022-12-08T23:11:16.565Z,14.90
2022-12-08T23:13:44.223Z,13.43
2022-12-08T23:16:12.060Z,14.68
2022-12-08T23:18:44.947Z,14.07
2022-12-08T23:21:16.416Z,12.40
2022-12-08T23:23:44.160Z,14.32
2022-12-08T23:26:21.985Z,18.33
2022-12-08T23:28:50.079Z,13.13
2022-12-08T23:31:18.858Z,11.60
2022-12-08T23:33:46.794Z,14.15
2022-12-08T23:36:16.029Z,13.70
2022-12-08T23:38:43.764Z,12.25
2022-12-08T23:41:13.588Z,12.00
2022-12-08T23:43:45.904Z,12.88
2022-12-08T23:46:15.249Z,15.65
2022-12-08T23:48:43.303Z,12.95
2022-12-08T23:51:11.666Z,11.90
2022-12-08T23:53:40.291Z,11.70
2022-12-08T23:56:11.794Z,12.73
2022-12-08T23:58:40.732Z,11.75
